Pearson, Arkansas
Current Conditions -  °F | °C
As of 10:55 PM on Saturday 22 Nov 2014 (Local Time) from KCCA Reporting Station
Haze Haze  
Wind Chill: 48°   Ceiling: 100
Heat Index: 48°   Visibility: 1mi
Dew Point: 48°   Wind: 0mph
Humidity: 100%   Direction: NA
Pressure: 29.9"   Gusts: NA
Location:  35.4081°N, 92.1263°W
Report Text: KCCA 230455Z AUTO 00000KT 1SM BR BKN001 BKN027 OVC041 09/09 A2990 RMK AO2
Loading
Personal Weather Stations






























Interactive Weather Map New forecast layout! Learn more

10-Day Weather Forecast

Advertisements
Track Severe Weather on mobile